Ariel, Washington
Current Conditions -  °F | °C
As of 7:35 PM on Wednesday 22 Oct 2014 (Local Time) from KKLS Reporting Station
Overcast Overcast  
Wind Chill: 14°   Ceiling: 2600
Heat Index: 14°   Visibility: 10mi
Dew Point: 11°   Wind: 13mph
Humidity: 82%   Direction: 170°S
Pressure: 29.69"   Gusts: 20mph
Location:  45.96°N, 122.57°W
Report Text: KKLS 230235Z AUTO 17011G17KT 10SM FEW016 BKN026 OVC055 14/11 A2969 RMK AO1
Loading
Personal Weather Stations






























Interactive Weather Map
Tropical Storm Tracking
New forecast layout! Learn more

10-Day Weather Forecast

Advertisements
Track Severe Weather on mobile